sensor_id;sensor_type;location;lat;lon;timestamp;P1;durP1;ratioP1;P2;durP2;ratioP2
17059;SDS011;8646;49.716;9.266;2022-07-29T00:00:24;3.63;;;2.00;;
17059;SDS011;8646;49.716;9.266;2022-07-29T00:03:28;6.87;;;2.20;;
17059;SDS011;8646;49.716;9.266;2022-07-29T00:06:32;3.40;;;2.10;;
17059;SDS011;8646;49.716;9.266;2022-07-29T00:09:34;6.93;;;2.27;;
17059;SDS011;8646;49.716;9.266;2022-07-29T00:12:53;3.37;;;2.00;;
17059;SDS011;8646;49.716;9.266;2022-07-29T00:15:56;4.87;;;1.97;;
17059;SDS011;8646;49.716;9.266;2022-07-29T00:19:05;3.50;;;2.00;;
17059;SDS011;8646;49.716;9.266;2022-07-29T00:22:08;6.43;;;1.90;;
17059;SDS011;8646;49.716;9.266;2022-07-29T00:25:11;7.03;;;1.87;;
17059;SDS011;8646;49.716;9.266;2022-07-29T00:28:16;4.33;;;1.70;;
17059;SDS011;8646;49.716;9.266;2022-07-29T00:31:19;5.50;;;2.10;;
17059;SDS011;8646;49.716;9.266;2022-07-29T00:34:22;4.60;;;1.87;;
17059;SDS011;8646;49.716;9.266;2022-07-29T00:37:43;2.93;;;1.70;;
17059;SDS011;8646;49.716;9.266;2022-07-29T00:40:46;4.73;;;2.00;;
17059;SDS011;8646;49.716;9.266;2022-07-29T00:43:51;6.23;;;2.10;;
17059;SDS011;8646;49.716;9.266;2022-07-29T00:46:54;10.20;;;1.70;;
17059;SDS011;8646;49.716;9.266;2022-07-29T00:49:57;4.00;;;1.80;;
17059;SDS011;8646;49.716;9.266;2022-07-29T00:53:00;5.10;;;1.80;;
17059;SDS011;8646;49.716;9.266;2022-07-29T00:56:05;5.70;;;2.10;;
17059;SDS011;8646;49.716;9.266;2022-07-29T00:59:09;11.80;;;2.07;;
17059;SDS011;8646;49.716;9.266;2022-07-29T01:02:11;8.67;;;2.10;;
17059;SDS011;8646;49.716;9.266;2022-07-29T01:05:15;6.73;;;2.03;;
17059;SDS011;8646;49.716;9.266;2022-07-29T01:08:20;2.80;;;1.87;;
17059;SDS011;8646;49.716;9.266;2022-07-29T01:11:23;4.57;;;1.70;;
17059;SDS011;8646;49.716;9.266;2022-07-29T01:14:28;5.83;;;2.40;;
17059;SDS011;8646;49.716;9.266;2022-07-29T01:17:32;5.93;;;2.30;;
17059;SDS011;8646;49.716;9.266;2022-07-29T01:20:44;9.00;;;2.10;;
17059;SDS011;8646;49.716;9.266;2022-07-29T01:24:11;6.43;;;2.30;;
17059;SDS011;8646;49.716;9.266;2022-07-29T01:27:38;6.37;;;2.10;;
17059;SDS011;8646;49.716;9.266;2022-07-29T01:30:48;8.50;;;1.90;;
17059;SDS011;8646;49.716;9.266;2022-07-29T01:33:55;4.77;;;2.00;;
17059;SDS011;8646;49.716;9.266;2022-07-29T01:37:03;4.10;;;1.70;;
17059;SDS011;8646;49.716;9.266;2022-07-29T01:40:11;9.03;;;2.30;;
17059;SDS011;8646;49.716;9.266;2022-07-29T01:43:23;8.97;;;1.90;;
17059;SDS011;8646;49.716;9.266;2022-07-29T01:46:35;7.63;;;2.10;;
17059;SDS011;8646;49.716;9.266;2022-07-29T01:49:41;6.03;;;2.20;;
17059;SDS011;8646;49.716;9.266;2022-07-29T01:52:49;5.07;;;2.10;;
17059;SDS011;8646;49.716;9.266;2022-07-29T01:55:57;9.70;;;2.33;;
17059;SDS011;8646;49.716;9.266;2022-07-29T01:59:04;4.90;;;2.10;;
17059;SDS011;8646;49.716;9.266;2022-07-29T02:02:12;6.43;;;1.90;;
17059;SDS011;8646;49.716;9.266;2022-07-29T02:05:18;8.93;;;1.90;;
17059;SDS011;8646;49.716;9.266;2022-07-29T02:08:23;4.87;;;2.17;;
17059;SDS011;8646;49.716;9.266;2022-07-29T02:11:27;11.10;;;1.90;;
17059;SDS011;8646;49.716;9.266;2022-07-29T02:14:34;5.23;;;2.10;;
17059;SDS011;8646;49.716;9.266;2022-07-29T02:17:43;8.27;;;2.63;;
17059;SDS011;8646;49.716;9.266;2022-07-29T02:20:52;4.00;;;2.30;;
17059;SDS011;8646;49.716;9.266;2022-07-29T02:23:59;7.10;;;2.50;;
17059;SDS011;8646;49.716;9.266;2022-07-29T02:27:04;6.03;;;2.30;;
17059;SDS011;8646;49.716;9.266;2022-07-29T02:30:07;4.27;;;2.20;;
17059;SDS011;8646;49.716;9.266;2022-07-29T02:33:14;8.60;;;2.17;;
17059;SDS011;8646;49.716;9.266;2022-07-29T02:36:20;6.23;;;2.10;;
17059;SDS011;8646;49.716;9.266;2022-07-29T02:39:25;3.37;;;2.10;;
17059;SDS011;8646;49.716;9.266;2022-07-29T02:42:31;4.10;;;2.30;;
17059;SDS011;8646;49.716;9.266;2022-07-29T02:45:35;5.37;;;2.43;;
17059;SDS011;8646;49.716;9.266;2022-07-29T02:48:43;4.43;;;2.20;;
17059;SDS011;8646;49.716;9.266;2022-07-29T02:51:53;3.97;;;2.20;;
17059;SDS011;8646;49.716;9.266;2022-07-29T02:54:58;5.37;;;2.10;;
17059;SDS011;8646;49.716;9.266;2022-07-29T02:58:05;8.30;;;2.40;;
17059;SDS011;8646;49.716;9.266;2022-07-29T03:01:16;7.00;;;2.30;;
17059;SDS011;8646;49.716;9.266;2022-07-29T03:04:25;4.97;;;2.17;;
17059;SDS011;8646;49.716;9.266;2022-07-29T03:07:30;6.30;;;2.57;;
17059;SDS011;8646;49.716;9.266;2022-07-29T03:10:34;5.43;;;2.30;;
17059;SDS011;8646;49.716;9.266;2022-07-29T03:13:39;4.80;;;2.40;;
17059;SDS011;8646;49.716;9.266;2022-07-29T03:16:43;7.47;;;2.90;;
17059;SDS011;8646;49.716;9.266;2022-07-29T03:19:48;6.03;;;2.37;;
17059;SDS011;8646;49.716;9.266;2022-07-29T03:22:53;4.70;;;2.53;;
17059;SDS011;8646;49.716;9.266;2022-07-29T03:25:56;5.37;;;2.53;;
17059;SDS011;8646;49.716;9.266;2022-07-29T03:28:59;4.63;;;2.47;;
17059;SDS011;8646;49.716;9.266;2022-07-29T03:32:03;6.27;;;2.40;;
17059;SDS011;8646;49.716;9.266;2022-07-29T03:35:11;6.80;;;2.40;;
17059;SDS011;8646;49.716;9.266;2022-07-29T03:38:14;3.87;;;2.43;;
17059;SDS011;8646;49.716;9.266;2022-07-29T03:41:17;9.03;;;2.17;;
17059;SDS011;8646;49.716;9.266;2022-07-29T03:44:23;5.67;;;2.37;;
17059;SDS011;8646;49.716;9.266;2022-07-29T03:47:28;3.67;;;2.33;;
17059;SDS011;8646;49.716;9.266;2022-07-29T03:50:52;7.30;;;2.80;;
17059;SDS011;8646;49.716;9.266;2022-07-29T03:53:55;6.77;;;2.47;;
17059;SDS011;8646;49.716;9.266;2022-07-29T03:56:58;6.93;;;2.63;;
17059;SDS011;8646;49.716;9.266;2022-07-29T04:00:04;5.83;;;2.33;;
17059;SDS011;8646;49.716;9.266;2022-07-29T04:03:09;8.03;;;2.97;;
17059;SDS011;8646;49.716;9.266;2022-07-29T04:06:17;6.90;;;2.73;;
17059;SDS011;8646;49.716;9.266;2022-07-29T04:09:20;8.20;;;2.43;;
17059;SDS011;8646;49.716;9.266;2022-07-29T04:12:23;5.20;;;2.80;;
17059;SDS011;8646;49.716;9.266;2022-07-29T04:15:26;5.23;;;2.70;;
17059;SDS011;8646;49.716;9.266;2022-07-29T04:18:31;6.30;;;2.63;;
17059;SDS011;8646;49.716;9.266;2022-07-29T04:21:37;5.33;;;2.47;;
17059;SDS011;8646;49.716;9.266;2022-07-29T04:24:40;5.87;;;2.50;;
17059;SDS011;8646;49.716;9.266;2022-07-29T04:27:44;5.57;;;2.40;;
17059;SDS011;8646;49.716;9.266;2022-07-29T04:31:13;7.20;;;2.60;;
17059;SDS011;8646;49.716;9.266;2022-07-29T04:34:16;7.77;;;2.73;;
17059;SDS011;8646;49.716;9.266;2022-07-29T04:37:20;6.97;;;2.87;;
17059;SDS011;8646;49.716;9.266;2022-07-29T04:40:23;5.50;;;2.80;;
17059;SDS011;8646;49.716;9.266;2022-07-29T04:43:26;10.90;;;3.73;;
17059;SDS011;8646;49.716;9.266;2022-07-29T04:46:38;7.43;;;2.90;;
17059;SDS011;8646;49.716;9.266;2022-07-29T04:49:41;10.70;;;2.67;;
17059;SDS011;8646;49.716;9.266;2022-07-29T04:52:44;9.80;;;3.20;;
17059;SDS011;8646;49.716;9.266;2022-07-29T04:55:47;8.13;;;2.83;;
17059;SDS011;8646;49.716;9.266;2022-07-29T04:58:50;7.73;;;2.90;;
17059;SDS011;8646;49.716;9.266;2022-07-29T05:01:54;3.83;;;2.60;;
17059;SDS011;8646;49.716;9.266;2022-07-29T05:04:58;8.43;;;3.27;;
17059;SDS011;8646;49.716;9.266;2022-07-29T05:08:01;11.53;;;3.97;;
17059;SDS011;8646;49.716;9.266;2022-07-29T05:11:03;9.03;;;3.07;;
17059;SDS011;8646;49.716;9.266;2022-07-29T05:14:13;7.97;;;3.13;;
17059;SDS011;8646;49.716;9.266;2022-07-29T05:17:19;24.20;;;3.40;;
17059;SDS011;8646;49.716;9.266;2022-07-29T05:20:21;7.17;;;2.77;;
17059;SDS011;8646;49.716;9.266;2022-07-29T05:23:27;7.40;;;3.07;;
17059;SDS011;8646;49.716;9.266;2022-07-29T05:26:30;12.60;;;3.20;;
17059;SDS011;8646;49.716;9.266;2022-07-29T05:29:33;6.30;;;3.00;;
17059;SDS011;8646;49.716;9.266;2022-07-29T05:32:47;12.90;;;4.10;;
17059;SDS011;8646;49.716;9.266;2022-07-29T05:35:50;12.43;;;4.47;;
17059;SDS011;8646;49.716;9.266;2022-07-29T05:38:58;13.33;;;3.87;;
17059;SDS011;8646;49.716;9.266;2022-07-29T05:42:01;22.23;;;4.47;;
17059;SDS011;8646;49.716;9.266;2022-07-29T05:45:05;20.30;;;5.20;;
17059;SDS011;8646;49.716;9.266;2022-07-29T05:48:10;18.77;;;4.13;;
17059;SDS011;8646;49.716;9.266;2022-07-29T05:51:13;19.13;;;4.63;;
17059;SDS011;8646;49.716;9.266;2022-07-29T05:54:16;20.33;;;4.33;;
17059;SDS011;8646;49.716;9.266;2022-07-29T05:57:19;23.27;;;4.23;;
17059;SDS011;8646;49.716;9.266;2022-07-29T06:00:23;16.83;;;3.77;;
17059;SDS011;8646;49.716;9.266;2022-07-29T06:03:31;14.17;;;4.23;;
17059;SDS011;8646;49.716;9.266;2022-07-29T06:06:33;11.83;;;4.00;;
17059;SDS011;8646;49.716;9.266;2022-07-29T06:09:37;23.97;;;4.67;;
17059;SDS011;8646;49.716;9.266;2022-07-29T06:12:40;29.33;;;4.50;;
17059;SDS011;8646;49.716;9.266;2022-07-29T06:15:43;22.03;;;4.60;;
17059;SDS011;8646;49.716;9.266;2022-07-29T06:18:48;20.07;;;4.17;;
17059;SDS011;8646;49.716;9.266;2022-07-29T06:21:50;25.83;;;4.80;;
17059;SDS011;8646;49.716;9.266;2022-07-29T06:24:53;11.77;;;4.07;;
17059;SDS011;8646;49.716;9.266;2022-07-29T06:27:56;15.13;;;4.10;;
17059;SDS011;8646;49.716;9.266;2022-07-29T06:30:59;15.70;;;4.10;;
17059;SDS011;8646;49.716;9.266;2022-07-29T06:34:03;14.77;;;3.80;;
17059;SDS011;8646;49.716;9.266;2022-07-29T06:37:07;8.10;;;3.10;;
17059;SDS011;8646;49.716;9.266;2022-07-29T06:40:16;9.10;;;2.93;;
17059;SDS011;8646;49.716;9.266;2022-07-29T06:43:37;7.87;;;2.60;;
17059;SDS011;8646;49.716;9.266;2022-07-29T06:46:52;11.83;;;3.03;;
17059;SDS011;8646;49.716;9.266;2022-07-29T06:49:57;7.77;;;2.67;;
17059;SDS011;8646;49.716;9.266;2022-07-29T06:53:00;15.23;;;3.07;;
17059;SDS011;8646;49.716;9.266;2022-07-29T06:56:03;14.73;;;3.23;;
17059;SDS011;8646;49.716;9.266;2022-07-29T06:59:07;8.43;;;3.20;;
17059;SDS011;8646;49.716;9.266;2022-07-29T07:02:11;6.87;;;3.07;;
17059;SDS011;8646;49.716;9.266;2022-07-29T07:05:15;18.83;;;3.33;;
17059;SDS011;8646;49.716;9.266;2022-07-29T07:08:18;10.10;;;2.83;;
17059;SDS011;8646;49.716;9.266;2022-07-29T07:11:20;9.67;;;2.57;;
17059;SDS011;8646;49.716;9.266;2022-07-29T07:14:23;15.13;;;2.73;;
17059;SDS011;8646;49.716;9.266;2022-07-29T07:17:27;8.37;;;3.10;;
17059;SDS011;8646;49.716;9.266;2022-07-29T07:20:31;5.17;;;2.73;;
17059;SDS011;8646;49.716;9.266;2022-07-29T07:23:34;4.20;;;2.30;;
17059;SDS011;8646;49.716;9.266;2022-07-29T07:26:37;4.93;;;2.50;;
17059;SDS011;8646;49.716;9.266;2022-07-29T07:29:40;12.10;;;2.80;;
17059;SDS011;8646;49.716;9.266;2022-07-29T07:32:44;7.93;;;2.40;;
17059;SDS011;8646;49.716;9.266;2022-07-29T07:35:48;8.57;;;3.00;;
17059;SDS011;8646;49.716;9.266;2022-07-29T07:38:51;6.77;;;2.50;;
17059;SDS011;8646;49.716;9.266;2022-07-29T07:41:54;8.37;;;2.43;;
17059;SDS011;8646;49.716;9.266;2022-07-29T07:44:57;10.93;;;3.20;;
17059;SDS011;8646;49.716;9.266;2022-07-29T07:48:14;11.50;;;3.00;;
17059;SDS011;8646;49.716;9.266;2022-07-29T07:51:18;10.10;;;3.30;;
17059;SDS011;8646;49.716;9.266;2022-07-29T07:54:20;9.60;;;3.67;;
17059;SDS011;8646;49.716;9.266;2022-07-29T07:57:23;7.57;;;2.43;;
17059;SDS011;8646;49.716;9.266;2022-07-29T08:00:26;12.17;;;3.23;;
17059;SDS011;8646;49.716;9.266;2022-07-29T08:03:29;9.43;;;3.40;;
17059;SDS011;8646;49.716;9.266;2022-07-29T08:06:33;11.63;;;3.00;;
17059;SDS011;8646;49.716;9.266;2022-07-29T08:09:37;11.53;;;3.20;;
17059;SDS011;8646;49.716;9.266;2022-07-29T08:12:40;9.43;;;3.07;;
17059;SDS011;8646;49.716;9.266;2022-07-29T08:15:43;8.27;;;3.07;;
17059;SDS011;8646;49.716;9.266;2022-07-29T08:18:46;7.60;;;2.90;;
17059;SDS011;8646;49.716;9.266;2022-07-29T08:21:51;11.67;;;3.60;;
17059;SDS011;8646;49.716;9.266;2022-07-29T08:24:55;11.83;;;2.60;;
17059;SDS011;8646;49.716;9.266;2022-07-29T08:27:58;12.40;;;2.83;;
17059;SDS011;8646;49.716;9.266;2022-07-29T08:31:00;8.00;;;3.03;;
17059;SDS011;8646;49.716;9.266;2022-07-29T08:34:03;8.40;;;3.07;;
17059;SDS011;8646;49.716;9.266;2022-07-29T08:37:08;13.70;;;3.20;;
17059;SDS011;8646;49.716;9.266;2022-07-29T08:40:11;7.70;;;2.47;;
17059;SDS011;8646;49.716;9.266;2022-07-29T08:43:15;8.70;;;3.23;;
17059;SDS011;8646;49.716;9.266;2022-07-29T08:46:18;8.27;;;2.83;;
17059;SDS011;8646;49.716;9.266;2022-07-29T08:49:20;6.70;;;2.60;;
17059;SDS011;8646;49.716;9.266;2022-07-29T08:52:25;9.50;;;2.33;;
17059;SDS011;8646;49.716;9.266;2022-07-29T08:55:29;11.13;;;3.00;;
17059;SDS011;8646;49.716;9.266;2022-07-29T08:58:32;7.13;;;2.70;;
17059;SDS011;8646;49.716;9.266;2022-07-29T09:01:37;8.37;;;2.83;;
17059;SDS011;8646;49.716;9.266;2022-07-29T09:04:44;6.87;;;2.90;;
17059;SDS011;8646;49.716;9.266;2022-07-29T09:07:49;7.97;;;2.97;;
17059;SDS011;8646;49.716;9.266;2022-07-29T09:10:52;7.53;;;2.70;;
17059;SDS011;8646;49.716;9.266;2022-07-29T09:13:56;9.47;;;3.20;;
17059;SDS011;8646;49.716;9.266;2022-07-29T09:16:59;15.17;;;2.83;;
17059;SDS011;8646;49.716;9.266;2022-07-29T09:20:07;13.07;;;3.87;;
17059;SDS011;8646;49.716;9.266;2022-07-29T09:23:13;11.00;;;3.60;;
17059;SDS011;8646;49.716;9.266;2022-07-29T09:26:27;9.87;;;3.90;;
17059;SDS011;8646;49.716;9.266;2022-07-29T09:29:31;7.93;;;3.13;;
17059;SDS011;8646;49.716;9.266;2022-07-29T09:35:58;7.10;;;2.83;;
17059;SDS011;8646;49.716;9.266;2022-07-29T09:39:03;7.90;;;3.17;;
17059;SDS011;8646;49.716;9.266;2022-07-29T09:42:06;10.23;;;3.13;;
17059;SDS011;8646;49.716;9.266;2022-07-29T09:45:09;11.17;;;3.40;;
17059;SDS011;8646;49.716;9.266;2022-07-29T09:48:13;6.87;;;3.40;;
17059;SDS011;8646;49.716;9.266;2022-07-29T09:51:18;9.17;;;2.90;;
17059;SDS011;8646;49.716;9.266;2022-07-29T09:54:30;10.17;;;3.20;;
17059;SDS011;8646;49.716;9.266;2022-07-29T09:57:37;12.40;;;3.13;;
17059;SDS011;8646;49.716;9.266;2022-07-29T10:00:41;8.40;;;2.70;;
17059;SDS011;8646;49.716;9.266;2022-07-29T10:03:51;11.43;;;3.30;;
17059;SDS011;8646;49.716;9.266;2022-07-29T10:06:55;10.57;;;2.80;;
17059;SDS011;8646;49.716;9.266;2022-07-29T10:10:06;14.23;;;3.67;;
17059;SDS011;8646;49.716;9.266;2022-07-29T10:13:10;4.83;;;2.70;;
17059;SDS011;8646;49.716;9.266;2022-07-29T10:16:16;13.53;;;2.80;;
17059;SDS011;8646;49.716;9.266;2022-07-29T10:19:20;7.73;;;2.80;;
17059;SDS011;8646;49.716;9.266;2022-07-29T10:22:23;12.53;;;3.27;;
17059;SDS011;8646;49.716;9.266;2022-07-29T10:25:47;5.17;;;2.77;;
17059;SDS011;8646;49.716;9.266;2022-07-29T10:28:50;6.63;;;2.90;;
17059;SDS011;8646;49.716;9.266;2022-07-29T10:31:56;8.38;;;3.13;;
17059;SDS011;8646;49.716;9.266;2022-07-29T10:35:12;11.40;;;3.20;;
17059;SDS011;8646;49.716;9.266;2022-07-29T10:38:27;6.68;;;3.08;;
17059;SDS011;8646;49.716;9.266;2022-07-29T10:41:55;7.03;;;3.30;;
17059;SDS011;8646;49.716;9.266;2022-07-29T10:45:09;4.60;;;2.97;;
17059;SDS011;8646;49.716;9.266;2022-07-29T10:48:12;6.40;;;2.80;;
17059;SDS011;8646;49.716;9.266;2022-07-29T10:51:15;6.07;;;3.30;;
17059;SDS011;8646;49.716;9.266;2022-07-29T10:54:33;4.87;;;2.83;;
17059;SDS011;8646;49.716;9.266;2022-07-29T10:57:44;7.83;;;3.20;;
17059;SDS011;8646;49.716;9.266;2022-07-29T11:01:28;5.10;;;3.33;;
17059;SDS011;8646;49.716;9.266;2022-07-29T11:04:58;6.03;;;3.00;;
17059;SDS011;8646;49.716;9.266;2022-07-29T11:08:21;5.43;;;2.95;;
17059;SDS011;8646;49.716;9.266;2022-07-29T11:11:31;6.43;;;3.03;;
17059;SDS011;8646;49.716;9.266;2022-07-29T11:18:05;10.70;;;2.83;;
17059;SDS011;8646;49.716;9.266;2022-07-29T11:25:12;10.50;;;3.00;;
17059;SDS011;8646;49.716;9.266;2022-07-29T11:28:17;9.32;;;3.33;;
17059;SDS011;8646;49.716;9.266;2022-07-29T11:31:33;7.45;;;3.10;;
17059;SDS011;8646;49.716;9.266;2022-07-29T11:34:39;7.32;;;3.35;;
17059;SDS011;8646;49.716;9.266;2022-07-29T11:37:42;7.25;;;3.22;;
17059;SDS011;8646;49.716;9.266;2022-07-29T11:44:28;6.43;;;3.50;;
17059;SDS011;8646;49.716;9.266;2022-07-29T11:48:00;4.83;;;3.17;;
17059;SDS011;8646;49.716;9.266;2022-07-29T11:51:23;6.50;;;3.30;;
17059;SDS011;8646;49.716;9.266;2022-07-29T11:54:34;7.05;;;3.42;;
17059;SDS011;8646;49.716;9.266;2022-07-29T11:57:57;7.03;;;3.45;;
17059;SDS011;8646;49.716;9.266;2022-07-29T12:01:04;6.45;;;3.47;;
17059;SDS011;8646;49.716;9.266;2022-07-29T12:04:08;12.18;;;3.42;;
17059;SDS011;8646;49.716;9.266;2022-07-29T12:07:14;8.82;;;3.70;;
17059;SDS011;8646;49.716;9.266;2022-07-29T12:10:18;9.93;;;3.92;;
17059;SDS011;8646;49.716;9.266;2022-07-29T12:13:31;14.38;;;3.83;;
17059;SDS011;8646;49.716;9.266;2022-07-29T12:16:41;13.68;;;4.45;;
17059;SDS011;8646;49.716;9.266;2022-07-29T12:19:45;14.68;;;4.90;;
17059;SDS011;8646;49.716;9.266;2022-07-29T12:22:51;12.15;;;5.35;;
17059;SDS011;8646;49.716;9.266;2022-07-29T12:25:55;16.48;;;5.10;;
17059;SDS011;8646;49.716;9.266;2022-07-29T12:28:58;10.73;;;5.00;;
17059;SDS011;8646;49.716;9.266;2022-07-29T12:32:03;15.65;;;5.00;;
17059;SDS011;8646;49.716;9.266;2022-07-29T12:35:20;10.18;;;4.35;;
17059;SDS011;8646;49.716;9.266;2022-07-29T12:38:24;6.15;;;3.70;;
17059;SDS011;8646;49.716;9.266;2022-07-29T12:41:27;9.55;;;4.32;;
17059;SDS011;8646;49.716;9.266;2022-07-29T12:47:52;8.37;;;3.80;;
17059;SDS011;8646;49.716;9.266;2022-07-29T12:50:58;7.63;;;3.97;;
17059;SDS011;8646;49.716;9.266;2022-07-29T12:54:04;8.50;;;4.00;;
17059;SDS011;8646;49.716;9.266;2022-07-29T12:57:08;5.73;;;3.57;;
17059;SDS011;8646;49.716;9.266;2022-07-29T13:00:22;5.90;;;3.50;;
17059;SDS011;8646;49.716;9.266;2022-07-29T13:03:26;6.60;;;3.73;;
17059;SDS011;8646;49.716;9.266;2022-07-29T13:06:38;6.33;;;3.70;;
17059;SDS011;8646;49.716;9.266;2022-07-29T13:09:46;6.23;;;3.73;;
17059;SDS011;8646;49.716;9.266;2022-07-29T13:13:02;5.83;;;3.70;;
17059;SDS011;8646;49.716;9.266;2022-07-29T13:16:07;6.70;;;3.77;;
17059;SDS011;8646;49.716;9.266;2022-07-29T13:19:11;8.67;;;3.60;;
17059;SDS011;8646;49.716;9.266;2022-07-29T13:22:16;8.50;;;4.10;;
17059;SDS011;8646;49.716;9.266;2022-07-29T13:25:23;9.10;;;3.90;;
17059;SDS011;8646;49.716;9.266;2022-07-29T13:28:27;9.67;;;4.00;;
17059;SDS011;8646;49.716;9.266;2022-07-29T13:31:30;12.03;;;4.63;;
17059;SDS011;8646;49.716;9.266;2022-07-29T13:34:32;11.70;;;4.37;;
17059;SDS011;8646;49.716;9.266;2022-07-29T13:37:37;12.53;;;4.30;;
17059;SDS011;8646;49.716;9.266;2022-07-29T13:40:40;15.90;;;4.70;;
17059;SDS011;8646;49.716;9.266;2022-07-29T13:43:43;10.50;;;4.90;;
17059;SDS011;8646;49.716;9.266;2022-07-29T13:46:50;10.33;;;5.03;;
17059;SDS011;8646;49.716;9.266;2022-07-29T13:49:54;11.40;;;4.80;;
17059;SDS011;8646;49.716;9.266;2022-07-29T13:52:58;13.83;;;5.00;;
17059;SDS011;8646;49.716;9.266;2022-07-29T13:56:01;7.33;;;4.27;;
17059;SDS011;8646;49.716;9.266;2022-07-29T13:59:04;12.80;;;5.37;;
17059;SDS011;8646;49.716;9.266;2022-07-29T14:02:06;9.10;;;4.40;;
17059;SDS011;8646;49.716;9.266;2022-07-29T14:05:10;10.57;;;4.60;;
17059;SDS011;8646;49.716;9.266;2022-07-29T14:08:14;14.57;;;5.37;;
17059;SDS011;8646;49.716;9.266;2022-07-29T14:11:19;10.90;;;4.97;;
17059;SDS011;8646;49.716;9.266;2022-07-29T14:14:22;8.53;;;4.83;;
17059;SDS011;8646;49.716;9.266;2022-07-29T14:17:25;9.20;;;4.80;;
17059;SDS011;8646;49.716;9.266;2022-07-29T14:20:28;10.67;;;4.97;;
17059;SDS011;8646;49.716;9.266;2022-07-29T14:23:33;11.23;;;5.13;;
17059;SDS011;8646;49.716;9.266;2022-07-29T14:26:36;10.30;;;5.00;;
17059;SDS011;8646;49.716;9.266;2022-07-29T14:29:39;12.70;;;4.60;;
17059;SDS011;8646;49.716;9.266;2022-07-29T14:32:41;9.03;;;5.23;;
17059;SDS011;8646;49.716;9.266;2022-07-29T14:35:45;13.43;;;5.57;;
17059;SDS011;8646;49.716;9.266;2022-07-29T14:38:49;9.47;;;5.20;;
17059;SDS011;8646;49.716;9.266;2022-07-29T14:41:52;11.40;;;5.73;;
17059;SDS011;8646;49.716;9.266;2022-07-29T14:44:55;10.07;;;5.57;;
17059;SDS011;8646;49.716;9.266;2022-07-29T14:47:58;8.13;;;5.30;;
17059;SDS011;8646;49.716;9.266;2022-07-29T14:51:02;8.40;;;5.30;;
17059;SDS011;8646;49.716;9.266;2022-07-29T14:54:06;11.80;;;5.80;;
17059;SDS011;8646;49.716;9.266;2022-07-29T14:57:09;13.17;;;6.63;;
17059;SDS011;8646;49.716;9.266;2022-07-29T15:00:13;8.57;;;5.77;;
17059;SDS011;8646;49.716;9.266;2022-07-29T15:03:17;10.53;;;5.73;;
17059;SDS011;8646;49.716;9.266;2022-07-29T15:06:24;13.47;;;5.70;;
17059;SDS011;8646;49.716;9.266;2022-07-29T15:09:28;8.67;;;5.17;;
17059;SDS011;8646;49.716;9.266;2022-07-29T15:12:36;9.57;;;5.20;;
17059;SDS011;8646;49.716;9.266;2022-07-29T15:15:39;13.77;;;5.33;;
17059;SDS011;8646;49.716;9.266;2022-07-29T15:18:42;10.00;;;5.43;;
17059;SDS011;8646;49.716;9.266;2022-07-29T15:21:45;11.10;;;6.33;;
17059;SDS011;8646;49.716;9.266;2022-07-29T15:25:01;11.20;;;8.80;;
17059;SDS011;8646;49.716;9.266;2022-07-29T15:28:04;8.70;;;4.47;;
17059;SDS011;8646;49.716;9.266;2022-07-29T15:31:08;8.70;;;4.83;;
17059;SDS011;8646;49.716;9.266;2022-07-29T15:34:11;8.43;;;4.70;;
17059;SDS011;8646;49.716;9.266;2022-07-29T15:37:14;6.00;;;4.80;;
17059;SDS011;8646;49.716;9.266;2022-07-29T15:40:18;6.67;;;2.77;;
17059;SDS011;8646;49.716;9.266;2022-07-29T15:43:21;10.73;;;4.90;;
17059;SDS011;8646;49.716;9.266;2022-07-29T15:46:26;13.57;;;5.00;;
17059;SDS011;8646;49.716;9.266;2022-07-29T15:49:47;13.73;;;5.40;;
17059;SDS011;8646;49.716;9.266;2022-07-29T15:52:50;19.93;;;7.37;;
17059;SDS011;8646;49.716;9.266;2022-07-29T15:55:54;18.13;;;6.67;;
17059;SDS011;8646;49.716;9.266;2022-07-29T15:58:57;16.60;;;6.37;;
17059;SDS011;8646;49.716;9.266;2022-07-29T16:02:01;17.60;;;7.27;;
17059;SDS011;8646;49.716;9.266;2022-07-29T16:05:04;21.53;;;8.10;;
17059;SDS011;8646;49.716;9.266;2022-07-29T16:08:09;25.47;;;8.07;;
17059;SDS011;8646;49.716;9.266;2022-07-29T16:11:14;27.30;;;7.83;;
17059;SDS011;8646;49.716;9.266;2022-07-29T16:14:16;16.83;;;7.43;;
17059;SDS011;8646;49.716;9.266;2022-07-29T16:17:19;14.20;;;6.57;;
17059;SDS011;8646;49.716;9.266;2022-07-29T16:20:22;14.93;;;7.60;;
17059;SDS011;8646;49.716;9.266;2022-07-29T16:23:26;28.10;;;8.47;;
17059;SDS011;8646;49.716;9.266;2022-07-29T16:26:31;16.23;;;7.97;;
17059;SDS011;8646;49.716;9.266;2022-07-29T16:29:34;15.70;;;7.97;;
17059;SDS011;8646;49.716;9.266;2022-07-29T16:32:38;22.30;;;9.27;;
17059;SDS011;8646;49.716;9.266;2022-07-29T16:35:41;14.43;;;8.03;;
17059;SDS011;8646;49.716;9.266;2022-07-29T16:38:44;11.80;;;6.87;;
17059;SDS011;8646;49.716;9.266;2022-07-29T16:41:49;10.20;;;6.30;;
17059;SDS011;8646;49.716;9.266;2022-07-29T16:44:52;13.03;;;7.33;;
17059;SDS011;8646;49.716;9.266;2022-07-29T16:47:55;12.00;;;7.80;;
17059;SDS011;8646;49.716;9.266;2022-07-29T16:51:01;13.17;;;4.87;;
17059;SDS011;8646;49.716;9.266;2022-07-29T16:54:04;13.77;;;5.90;;
17059;SDS011;8646;49.716;9.266;2022-07-29T16:57:10;18.50;;;6.43;;
17059;SDS011;8646;49.716;9.266;2022-07-29T17:00:13;14.83;;;8.27;;
17059;SDS011;8646;49.716;9.266;2022-07-29T17:03:17;17.50;;;8.20;;
17059;SDS011;8646;49.716;9.266;2022-07-29T17:06:20;17.13;;;8.67;;
17059;SDS011;8646;49.716;9.266;2022-07-29T17:09:23;18.03;;;10.57;;
17059;SDS011;8646;49.716;9.266;2022-07-29T17:12:28;19.13;;;10.60;;
17059;SDS011;8646;49.716;9.266;2022-07-29T17:15:30;19.60;;;10.63;;
17059;SDS011;8646;49.716;9.266;2022-07-29T17:18:36;21.70;;;11.17;;
17059;SDS011;8646;49.716;9.266;2022-07-29T17:21:39;18.70;;;10.50;;
17059;SDS011;8646;49.716;9.266;2022-07-29T17:24:49;20.27;;;10.50;;
17059;SDS011;8646;49.716;9.266;2022-07-29T17:27:54;16.13;;;10.63;;
17059;SDS011;8646;49.716;9.266;2022-07-29T17:31:01;17.77;;;10.20;;
17059;SDS011;8646;49.716;9.266;2022-07-29T17:34:05;14.43;;;9.90;;
17059;SDS011;8646;49.716;9.266;2022-07-29T17:37:09;19.33;;;10.87;;
17059;SDS011;8646;49.716;9.266;2022-07-29T17:40:13;17.17;;;9.57;;
17059;SDS011;8646;49.716;9.266;2022-07-29T17:43:17;14.33;;;8.60;;
17059;SDS011;8646;49.716;9.266;2022-07-29T17:46:20;14.70;;;8.10;;
17059;SDS011;8646;49.716;9.266;2022-07-29T17:49:26;13.03;;;8.37;;
17059;SDS011;8646;49.716;9.266;2022-07-29T17:52:29;12.77;;;8.80;;
17059;SDS011;8646;49.716;9.266;2022-07-29T17:55:32;13.73;;;8.73;;
17059;SDS011;8646;49.716;9.266;2022-07-29T17:58:36;15.50;;;8.60;;
17059;SDS011;8646;49.716;9.266;2022-07-29T18:01:40;13.90;;;8.80;;
17059;SDS011;8646;49.716;9.266;2022-07-29T18:04:43;14.97;;;9.43;;
17059;SDS011;8646;49.716;9.266;2022-07-29T18:07:50;14.63;;;8.80;;
17059;SDS011;8646;49.716;9.266;2022-07-29T18:10:53;12.13;;;8.40;;
17059;SDS011;8646;49.716;9.266;2022-07-29T18:13:58;12.93;;;8.77;;
17059;SDS011;8646;49.716;9.266;2022-07-29T18:17:02;14.33;;;8.30;;
17059;SDS011;8646;49.716;9.266;2022-07-29T18:20:06;18.87;;;10.47;;
17059;SDS011;8646;49.716;9.266;2022-07-29T18:23:09;14.63;;;10.50;;
17059;SDS011;8646;49.716;9.266;2022-07-29T18:26:13;13.13;;;8.63;;
17059;SDS011;8646;49.716;9.266;2022-07-29T18:29:17;13.87;;;9.60;;
17059;SDS011;8646;49.716;9.266;2022-07-29T18:32:20;13.20;;;9.13;;
17059;SDS011;8646;49.716;9.266;2022-07-29T18:35:29;13.77;;;7.73;;
17059;SDS011;8646;49.716;9.266;2022-07-29T18:38:32;16.13;;;7.77;;
17059;SDS011;8646;49.716;9.266;2022-07-29T18:41:35;11.73;;;7.33;;
17059;SDS011;8646;49.716;9.266;2022-07-29T18:44:52;12.63;;;7.83;;
17059;SDS011;8646;49.716;9.266;2022-07-29T18:47:55;12.20;;;8.00;;
17059;SDS011;8646;49.716;9.266;2022-07-29T18:50:57;9.47;;;7.30;;
17059;SDS011;8646;49.716;9.266;2022-07-29T18:54:00;11.53;;;7.23;;
17059;SDS011;8646;49.716;9.266;2022-07-29T18:57:03;19.63;;;8.23;;
17059;SDS011;8646;49.716;9.266;2022-07-29T19:00:27;15.57;;;9.27;;
17059;SDS011;8646;49.716;9.266;2022-07-29T19:03:32;15.23;;;9.63;;
17059;SDS011;8646;49.716;9.266;2022-07-29T19:06:35;12.80;;;7.23;;